sensor_id;sensor_type;location;lat;lon;timestamp;temperature;humidity
7413;DHT22;3748;48.136;11.538;2022-11-20T02:28:29;5.40;99.90
7413;DHT22;3748;48.136;11.538;2022-11-20T02:30:56;5.40;99.90
7413;DHT22;3748;48.136;11.538;2022-11-20T02:33:23;5.30;99.90
7413;DHT22;3748;48.136;11.538;2022-11-20T02:35:58;5.30;99.90
7413;DHT22;3748;48.136;11.538;2022-11-20T02:38:25;5.30;99.90
7413;DHT22;3748;48.136;11.538;2022-11-20T02:40:52;5.30;99.90
7413;DHT22;3748;48.136;11.538;2022-11-20T02:43:19;5.30;99.90
7413;DHT22;3748;48.136;11.538;2022-11-20T02:45:52;5.30;99.90
7413;DHT22;3748;48.136;11.538;2022-11-20T02:48:18;5.30;99.90
7413;DHT22;3748;48.136;11.538;2022-11-20T02:50:46;5.30;99.90
7413;DHT22;3748;48.136;11.538;2022-11-20T02:53:13;5.30;99.90
7413;DHT22;3748;48.136;11.538;2022-11-20T02:55:40;5.30;99.90
7413;DHT22;3748;48.136;11.538;2022-11-20T02:58:07;5.30;99.90
7413;DHT22;3748;48.136;11.538;2022-11-20T03:00:34;5.60;99.90
7413;DHT22;3748;48.136;11.538;2022-11-20T03:03:02;5.30;99.90
7413;DHT22;3748;48.136;11.538;2022-11-20T03:05:29;5.30;99.90
7413;DHT22;3748;48.136;11.538;2022-11-20T03:07:56;5.30;99.90
7413;DHT22;3748;48.136;11.538;2022-11-20T03:10:23;5.30;99.90
7413;DHT22;3748;48.136;11.538;2022-11-20T03:12:54;5.30;99.90
7413;DHT22;3748;48.136;11.538;2022-11-20T03:15:22;5.30;99.90
7413;DHT22;3748;48.136;11.538;2022-11-20T03:17:49;5.30;99.90
7413;DHT22;3748;48.136;11.538;2022-11-20T03:20:17;5.30;99.90
7413;DHT22;3748;48.136;11.538;2022-11-20T03:22:44;5.30;99.90
7413;DHT22;3748;48.136;11.538;2022-11-20T03:25:11;5.30;99.90
7413;DHT22;3748;48.136;11.538;2022-11-20T03:27:45;5.40;99.90
7413;DHT22;3748;48.136;11.538;2022-11-20T03:30:13;5.30;99.90
7413;DHT22;3748;48.136;11.538;2022-11-20T03:32:40;5.30;99.90
7413;DHT22;3748;48.136;11.538;2022-11-20T03:35:08;5.30;99.90
7413;DHT22;3748;48.136;11.538;2022-11-20T03:37:44;4.70;99.90
7413;DHT22;3748;48.136;11.538;2022-11-20T03:40:12;5.40;99.90
7413;DHT22;3748;48.136;11.538;2022-11-20T03:42:39;5.30;99.90
7413;DHT22;3748;48.136;11.538;2022-11-20T03:45:12;5.30;99.90
7413;DHT22;3748;48.136;11.538;2022-11-20T03:47:39;5.30;99.90
7413;DHT22;3748;48.136;11.538;2022-11-20T03:50:11;5.30;99.90
7413;DHT22;3748;48.136;11.538;2022-11-20T03:52:39;5.30;99.90
7413;DHT22;3748;48.136;11.538;2022-11-20T03:55:08;5.30;99.90
7413;DHT22;3748;48.136;11.538;2022-11-20T03:57:35;5.30;99.90
7413;DHT22;3748;48.136;11.538;2022-11-20T04:00:03;5.30;99.90
7413;DHT22;3748;48.136;11.538;2022-11-20T04:02:32;5.30;99.90
7413;DHT22;3748;48.136;11.538;2022-11-20T04:04:59;5.30;99.90
7413;DHT22;3748;48.136;11.538;2022-11-20T04:07:26;5.30;99.90
7413;DHT22;3748;48.136;11.538;2022-11-20T04:09:53;5.30;99.90
7413;DHT22;3748;48.136;11.538;2022-11-20T04:12:21;5.20;99.90
7413;DHT22;3748;48.136;11.538;2022-11-20T04:14:48;5.10;99.90
7413;DHT22;3748;48.136;11.538;2022-11-20T04:17:21;5.20;99.90
7413;DHT22;3748;48.136;11.538;2022-11-20T04:19:48;5.20;99.90
7413;DHT22;3748;48.136;11.538;2022-11-20T04:22:15;5.20;99.90
7413;DHT22;3748;48.136;11.538;2022-11-20T04:24:42;5.20;99.90
7413;DHT22;3748;48.136;11.538;2022-11-20T04:27:10;5.20;99.90
7413;DHT22;3748;48.136;11.538;2022-11-20T04:29:38;5.20;99.90
7413;DHT22;3748;48.136;11.538;2022-11-20T04:32:05;5.30;99.90
7413;DHT22;3748;48.136;11.538;2022-11-20T04:34:32;5.20;99.90
7413;DHT22;3748;48.136;11.538;2022-11-20T04:37:00;5.20;99.90
7413;DHT22;3748;48.136;11.538;2022-11-20T04:39:27;5.20;99.90
7413;DHT22;3748;48.136;11.538;2022-11-20T04:41:54;5.20;99.90
7413;DHT22;3748;48.136;11.538;2022-11-20T04:44:37;5.30;99.90
7413;DHT22;3748;48.136;11.538;2022-11-20T04:47:05;5.30;99.90
7413;DHT22;3748;48.136;11.538;2022-11-20T04:49:31;5.30;99.90
7413;DHT22;3748;48.136;11.538;2022-11-20T04:51:59;5.30;99.90
7413;DHT22;3748;48.136;11.538;2022-11-20T04:54:34;5.30;99.90
7413;DHT22;3748;48.136;11.538;2022-11-20T04:57:01;5.20;99.90
7413;DHT22;3748;48.136;11.538;2022-11-20T04:59:28;5.30;99.90
7413;DHT22;3748;48.136;11.538;2022-11-20T05:01:57;5.20;99.90
7413;DHT22;3748;48.136;11.538;2022-11-20T05:04:23;5.20;99.90
7413;DHT22;3748;48.136;11.538;2022-11-20T05:06:56;5.20;99.90
7413;DHT22;3748;48.136;11.538;2022-11-20T05:09:23;5.20;99.90
7413;DHT22;3748;48.136;11.538;2022-11-20T05:11:50;5.20;99.90
7413;DHT22;3748;48.136;11.538;2022-11-20T05:14:17;5.20;99.90
7413;DHT22;3748;48.136;11.538;2022-11-20T05:16:44;5.30;99.90
7413;DHT22;3748;48.136;11.538;2022-11-20T05:19:12;5.30;99.90
7413;DHT22;3748;48.136;11.538;2022-11-20T05:21:44;5.20;99.90
7413;DHT22;3748;48.136;11.538;2022-11-20T05:24:11;5.20;99.90
7413;DHT22;3748;48.136;11.538;2022-11-20T05:26:38;5.20;99.90
7413;DHT22;3748;48.136;11.538;2022-11-20T05:29:05;5.20;99.90
7413;DHT22;3748;48.136;11.538;2022-11-20T05:31:32;5.30;99.90
7413;DHT22;3748;48.136;11.538;2022-11-20T05:33:59;5.20;99.90
7413;DHT22;3748;48.136;11.538;2022-11-20T05:36:27;5.20;99.90
7413;DHT22;3748;48.136;11.538;2022-11-20T05:38:56;5.20;99.90
7413;DHT22;3748;48.136;11.538;2022-11-20T05:41:23;5.20;99.90
7413;DHT22;3748;48.136;11.538;2022-11-20T05:43:50;5.20;99.90
7413;DHT22;3748;48.136;11.538;2022-11-20T05:46:19;5.30;99.90
7413;DHT22;3748;48.136;11.538;2022-11-20T05:48:46;5.20;99.90
7413;DHT22;3748;48.136;11.538;2022-11-20T05:51:20;5.20;99.90
7413;DHT22;3748;48.136;11.538;2022-11-20T05:53:48;5.20;99.90
7413;DHT22;3748;48.136;11.538;2022-11-20T05:56:17;5.30;99.90
7413;DHT22;3748;48.136;11.538;2022-11-20T05:58:44;5.30;99.90
7413;DHT22;3748;48.136;11.538;2022-11-20T06:01:13;5.10;99.90
7413;DHT22;3748;48.136;11.538;2022-11-20T06:03:44;5.20;99.90
7413;DHT22;3748;48.136;11.538;2022-11-20T06:06:14;5.20;99.90
7413;DHT22;3748;48.136;11.538;2022-11-20T06:08:41;5.20;99.90
7413;DHT22;3748;48.136;11.538;2022-11-20T06:11:11;5.10;99.90
7413;DHT22;3748;48.136;11.538;2022-11-20T06:13:38;5.10;99.90
7413;DHT22;3748;48.136;11.538;2022-11-20T06:16:06;5.10;99.90
7413;DHT22;3748;48.136;11.538;2022-11-20T06:18:33;5.10;99.90
7413;DHT22;3748;48.136;11.538;2022-11-20T06:21:01;5.00;99.90
7413;DHT22;3748;48.136;11.538;2022-11-20T06:23:31;5.00;99.90
7413;DHT22;3748;48.136;11.538;2022-11-20T06:26:01;5.00;99.90
7413;DHT22;3748;48.136;11.538;2022-11-20T06:28:34;5.00;99.90
7413;DHT22;3748;48.136;11.538;2022-11-20T06:31:01;4.90;99.90
7413;DHT22;3748;48.136;11.538;2022-11-20T06:33:28;4.90;99.90
7413;DHT22;3748;48.136;11.538;2022-11-20T06:35:57;4.80;99.90
7413;DHT22;3748;48.136;11.538;2022-11-20T06:38:24;4.80;99.90
7413;DHT22;3748;48.136;11.538;2022-11-20T06:40:51;4.90;99.90
7413;DHT22;3748;48.136;11.538;2022-11-20T06:43:18;4.90;99.90
7413;DHT22;3748;48.136;11.538;2022-11-20T06:45:51;4.90;99.90
7413;DHT22;3748;48.136;11.538;2022-11-20T06:48:18;5.00;99.90
7413;DHT22;3748;48.136;11.538;2022-11-20T06:50:45;5.10;99.90
7413;DHT22;3748;48.136;11.538;2022-11-20T06:53:12;5.00;99.90
7413;DHT22;3748;48.136;11.538;2022-11-20T06:55:42;5.00;99.90
7413;DHT22;3748;48.136;11.538;2022-11-20T06:58:17;4.90;99.90
7413;DHT22;3748;48.136;11.538;2022-11-20T07:00:44;4.50;99.90
7413;DHT22;3748;48.136;11.538;2022-11-20T07:03:12;5.10;99.90
7413;DHT22;3748;48.136;11.538;2022-11-20T07:05:40;5.10;99.90
7413;DHT22;3748;48.136;11.538;2022-11-20T07:08:07;5.20;99.90
7413;DHT22;3748;48.136;11.538;2022-11-20T07:10:34;5.30;99.90
7413;DHT22;3748;48.136;11.538;2022-11-20T07:13:01;5.30;99.90
7413;DHT22;3748;48.136;11.538;2022-11-20T07:15:32;5.30;99.90
7413;DHT22;3748;48.136;11.538;2022-11-20T07:17:59;5.40;99.90
7413;DHT22;3748;48.136;11.538;2022-11-20T07:20:28;5.30;99.90
7413;DHT22;3748;48.136;11.538;2022-11-20T07:22:54;5.30;99.90
7413;DHT22;3748;48.136;11.538;2022-11-20T07:25:21;5.40;99.90
7413;DHT22;3748;48.136;11.538;2022-11-20T07:27:48;5.30;99.90
7413;DHT22;3748;48.136;11.538;2022-11-20T07:30:15;5.30;99.90
7413;DHT22;3748;48.136;11.538;2022-11-20T07:32:45;5.20;99.90
7413;DHT22;3748;48.136;11.538;2022-11-20T07:35:13;5.30;99.90
7413;DHT22;3748;48.136;11.538;2022-11-20T07:37:41;5.30;99.90
7413;DHT22;3748;48.136;11.538;2022-11-20T07:40:08;5.40;99.90
7413;DHT22;3748;48.136;11.538;2022-11-20T07:42:36;5.30;99.90
7413;DHT22;3748;48.136;11.538;2022-11-20T07:45:05;5.30;99.90
7413;DHT22;3748;48.136;11.538;2022-11-20T07:47:35;5.30;99.90
7413;DHT22;3748;48.136;11.538;2022-11-20T07:50:02;5.30;99.90
7413;DHT22;3748;48.136;11.538;2022-11-20T07:52:29;5.40;99.90
7413;DHT22;3748;48.136;11.538;2022-11-20T07:54:57;5.30;99.90
7413;DHT22;3748;48.136;11.538;2022-11-20T07:57:28;5.40;99.90
7413;DHT22;3748;48.136;11.538;2022-11-20T07:59:55;5.30;99.90
7413;DHT22;3748;48.136;11.538;2022-11-20T08:02:22;5.40;99.90
7413;DHT22;3748;48.136;11.538;2022-11-20T08:04:49;5.20;99.90
7413;DHT22;3748;48.136;11.538;2022-11-20T08:07:16;5.40;99.90
7413;DHT22;3748;48.136;11.538;2022-11-20T08:09:47;5.40;99.90
7413;DHT22;3748;48.136;11.538;2022-11-20T08:12:19;5.40;99.90
7413;DHT22;3748;48.136;11.538;2022-11-20T08:15:05;5.50;99.90
7413;DHT22;3748;48.136;11.538;2022-11-20T08:17:32;5.50;99.90
7413;DHT22;3748;48.136;11.538;2022-11-20T08:19:59;5.40;99.90
7413;DHT22;3748;48.136;11.538;2022-11-20T08:22:28;5.50;99.90
7413;DHT22;3748;48.136;11.538;2022-11-20T08:24:55;5.40;99.90
7413;DHT22;3748;48.136;11.538;2022-11-20T08:27:24;5.50;99.90
7413;DHT22;3748;48.136;11.538;2022-11-20T08:43:10;5.90;99.90
7413;DHT22;3748;48.136;11.538;2022-11-20T08:45:38;5.90;99.90
7413;DHT22;3748;48.136;11.538;2022-11-20T08:48:05;5.90;99.90
7413;DHT22;3748;48.136;11.538;2022-11-20T08:50:40;5.90;99.90
7413;DHT22;3748;48.136;11.538;2022-11-20T08:53:07;5.90;99.90
7413;DHT22;3748;48.136;11.538;2022-11-20T08:55:34;5.90;99.90
7413;DHT22;3748;48.136;11.538;2022-11-20T08:58:03;6.00;99.90
7413;DHT22;3748;48.136;11.538;2022-11-20T09:00:35;6.00;99.90
7413;DHT22;3748;48.136;11.538;2022-11-20T09:03:02;6.00;99.90
7413;DHT22;3748;48.136;11.538;2022-11-20T09:05:30;6.00;99.90
7413;DHT22;3748;48.136;11.538;2022-11-20T09:07:57;6.10;99.90
7413;DHT22;3748;48.136;11.538;2022-11-20T09:10:32;6.10;99.90
7413;DHT22;3748;48.136;11.538;2022-11-20T09:12:59;6.00;99.90
7413;DHT22;3748;48.136;11.538;2022-11-20T09:15:27;6.20;99.90
7413;DHT22;3748;48.136;11.538;2022-11-20T09:17:59;6.20;99.90
7413;DHT22;3748;48.136;11.538;2022-11-20T09:20:28;6.30;99.90
7413;DHT22;3748;48.136;11.538;2022-11-20T09:22:56;6.30;99.90
7413;DHT22;3748;48.136;11.538;2022-11-20T09:25:23;6.40;99.90
7413;DHT22;3748;48.136;11.538;2022-11-20T09:27:55;6.30;99.90
7413;DHT22;3748;48.136;11.538;2022-11-20T09:30:22;6.30;99.90
7413;DHT22;3748;48.136;11.538;2022-11-20T09:32:59;6.30;99.90
7413;DHT22;3748;48.136;11.538;2022-11-20T09:35:27;6.40;99.90
7413;DHT22;3748;48.136;11.538;2022-11-20T09:37:53;6.60;99.90
7413;DHT22;3748;48.136;11.538;2022-11-20T09:40:22;6.70;99.90
7413;DHT22;3748;48.136;11.538;2022-11-20T09:43:01;6.60;99.90
7413;DHT22;3748;48.136;11.538;2022-11-20T09:45:37;6.60;99.90
7413;DHT22;3748;48.136;11.538;2022-11-20T09:51:13;6.60;99.90
7413;DHT22;3748;48.136;11.538;2022-11-20T09:53:55;6.50;99.90
7413;DHT22;3748;48.136;11.538;2022-11-20T09:56:26;6.60;99.90
7413;DHT22;3748;48.136;11.538;2022-11-20T09:58:55;6.80;99.90
7413;DHT22;3748;48.136;11.538;2022-11-20T10:01:29;7.00;99.90
7413;DHT22;3748;48.136;11.538;2022-11-20T10:04:02;7.20;99.90
7413;DHT22;3748;48.136;11.538;2022-11-20T10:06:32;7.40;99.90
7413;DHT22;3748;48.136;11.538;2022-11-20T10:09:13;7.40;99.90
7413;DHT22;3748;48.136;11.538;2022-11-20T10:12:06;7.50;99.90
7413;DHT22;3748;48.136;11.538;2022-11-20T10:14:45;7.60;99.90
7413;DHT22;3748;48.136;11.538;2022-11-20T10:17:21;7.60;99.90
7413;DHT22;3748;48.136;11.538;2022-11-20T10:20:06;7.90;99.90
7413;DHT22;3748;48.136;11.538;2022-11-20T10:22:47;7.80;99.90
7413;DHT22;3748;48.136;11.538;2022-11-20T10:25:18;7.90;99.90
7413;DHT22;3748;48.136;11.538;2022-11-20T10:28:03;7.70;99.90
7413;DHT22;3748;48.136;11.538;2022-11-20T10:30:48;7.60;99.90
7413;DHT22;3748;48.136;11.538;2022-11-20T10:33:21;7.50;99.90
7413;DHT22;3748;48.136;11.538;2022-11-20T10:35:53;7.60;99.90
7413;DHT22;3748;48.136;11.538;2022-11-20T10:38:29;7.50;99.90
7413;DHT22;3748;48.136;11.538;2022-11-20T10:41:00;7.50;99.90
7413;DHT22;3748;48.136;11.538;2022-11-20T10:43:42;7.60;99.90
7413;DHT22;3748;48.136;11.538;2022-11-20T10:46:15;7.60;99.90
7413;DHT22;3748;48.136;11.538;2022-11-20T10:48:43;7.60;99.90
7413;DHT22;3748;48.136;11.538;2022-11-20T10:51:21;7.70;99.90
7413;DHT22;3748;48.136;11.538;2022-11-20T10:54:06;7.80;99.90
7413;DHT22;3748;48.136;11.538;2022-11-20T10:56:40;7.70;99.90
7413;DHT22;3748;48.136;11.538;2022-11-20T11:02:19;7.70;99.90
7413;DHT22;3748;48.136;11.538;2022-11-20T11:05:08;7.70;99.90
7413;DHT22;3748;48.136;11.538;2022-11-20T11:07:39;7.60;99.90
7413;DHT22;3748;48.136;11.538;2022-11-20T11:10:16;7.60;99.90
7413;DHT22;3748;48.136;11.538;2022-11-20T11:12:46;7.60;99.90
7413;DHT22;3748;48.136;11.538;2022-11-20T11:15:24;7.60;99.90
7413;DHT22;3748;48.136;11.538;2022-11-20T11:17:52;7.50;99.90
7413;DHT22;3748;48.136;11.538;2022-11-20T11:20:20;7.60;99.90
7413;DHT22;3748;48.136;11.538;2022-11-20T11:22:50;7.60;99.90
7413;DHT22;3748;48.136;11.538;2022-11-20T11:25:24;7.40;99.90
7413;DHT22;3748;48.136;11.538;2022-11-20T11:27:52;7.50;99.90
7413;DHT22;3748;48.136;11.538;2022-11-20T11:30:24;7.40;99.90
7413;DHT22;3748;48.136;11.538;2022-11-20T11:33:02;7.40;99.90
7413;DHT22;3748;48.136;11.538;2022-11-20T11:35:29;7.40;99.90
7413;DHT22;3748;48.136;11.538;2022-11-20T11:38:06;7.40;99.90
7413;DHT22;3748;48.136;11.538;2022-11-20T11:40:35;7.70;99.90
7413;DHT22;3748;48.136;11.538;2022-11-20T11:43:06;7.40;99.90
7413;DHT22;3748;48.136;11.538;2022-11-20T11:45:54;7.40;99.90
7413;DHT22;3748;48.136;11.538;2022-11-20T11:48:23;7.50;99.90
7413;DHT22;3748;48.136;11.538;2022-11-20T11:50:50;7.70;99.90
7413;DHT22;3748;48.136;11.538;2022-11-20T11:53:20;7.60;99.90
7413;DHT22;3748;48.136;11.538;2022-11-20T11:55:52;7.70;99.90
7413;DHT22;3748;48.136;11.538;2022-11-20T11:58:34;7.60;99.90
7413;DHT22;3748;48.136;11.538;2022-11-20T12:01:07;7.70;99.90
7413;DHT22;3748;48.136;11.538;2022-11-20T12:03:38;7.70;99.90
7413;DHT22;3748;48.136;11.538;2022-11-20T12:06:11;7.50;99.90
7413;DHT22;3748;48.136;11.538;2022-11-20T12:08:48;7.50;99.90
7413;DHT22;3748;48.136;11.538;2022-11-20T12:11:18;7.40;99.90
7413;DHT22;3748;48.136;11.538;2022-11-20T12:13:51;7.10;99.90
7413;DHT22;3748;48.136;11.538;2022-11-20T12:16:20;6.60;99.90
7413;DHT22;3748;48.136;11.538;2022-11-20T12:18:50;6.50;99.90
7413;DHT22;3748;48.136;11.538;2022-11-20T12:21:27;6.60;99.90
7413;DHT22;3748;48.136;11.538;2022-11-20T12:24:24;6.60;99.90
7413;DHT22;3748;48.136;11.538;2022-11-20T12:27:05;6.70;99.90
7413;DHT22;3748;48.136;11.538;2022-11-20T12:30:06;6.70;99.90
7413;DHT22;3748;48.136;11.538;2022-11-20T12:32:54;6.60;99.90
7413;DHT22;3748;48.136;11.538;2022-11-20T12:35:42;6.50;99.90
7413;DHT22;3748;48.136;11.538;2022-11-20T12:38:32;6.40;99.90
7413;DHT22;3748;48.136;11.538;2022-11-20T12:41:08;6.50;99.90
7413;DHT22;3748;48.136;11.538;2022-11-20T12:43:42;6.40;99.90
7413;DHT22;3748;48.136;11.538;2022-11-20T12:46:34;6.40;99.90
7413;DHT22;3748;48.136;11.538;2022-11-20T12:49:24;6.50;99.90
7413;DHT22;3748;48.136;11.538;2022-11-20T12:52:16;6.40;99.90
7413;DHT22;3748;48.136;11.538;2022-11-20T12:57:48;6.40;99.90
7413;DHT22;3748;48.136;11.538;2022-11-20T13:00:19;6.40;99.90
7413;DHT22;3748;48.136;11.538;2022-11-20T13:03:14;6.40;99.90
7413;DHT22;3748;48.136;11.538;2022-11-20T13:05:53;6.30;99.90
7413;DHT22;3748;48.136;11.538;2022-11-20T13:08:25;6.30;99.90
7413;DHT22;3748;48.136;11.538;2022-11-20T13:10:59;6.30;99.90
7413;DHT22;3748;48.136;11.538;2022-11-20T13:13:35;6.40;99.90
7413;DHT22;3748;48.136;11.538;2022-11-20T13:16:10;6.40;99.90
7413;DHT22;3748;48.136;11.538;2022-11-20T13:18:40;6.50;99.90
7413;DHT22;3748;48.136;11.538;2022-11-20T13:21:16;6.30;99.90
7413;DHT22;3748;48.136;11.538;2022-11-20T13:23:43;6.10;99.90
7413;DHT22;3748;48.136;11.538;2022-11-20T13:26:18;6.00;99.90
7413;DHT22;3748;48.136;11.538;2022-11-20T13:29:00;6.00;99.90
7413;DHT22;3748;48.136;11.538;2022-11-20T13:31:31;6.10;99.90
7413;DHT22;3748;48.136;11.538;2022-11-20T13:33:59;6.00;99.90
7413;DHT22;3748;48.136;11.538;2022-11-20T13:51:21;6.10;99.90
7413;DHT22;3748;48.136;11.538;2022-11-20T13:57:14;6.20;99.90
7413;DHT22;3748;48.136;11.538;2022-11-20T13:59:56;6.20;99.90
7413;DHT22;3748;48.136;11.538;2022-11-20T14:02:27;6.20;99.90
7413;DHT22;3748;48.136;11.538;2022-11-20T14:04:57;6.20;99.90
7413;DHT22;3748;48.136;11.538;2022-11-20T14:07:44;6.20;99.90
7413;DHT22;3748;48.136;11.538;2022-11-20T14:10:20;6.20;99.90
7413;DHT22;3748;48.136;11.538;2022-11-20T14:12:47;6.20;99.90
7413;DHT22;3748;48.136;11.538;2022-11-20T14:15:24;6.30;99.90
7413;DHT22;3748;48.136;11.538;2022-11-20T14:17:51;6.40;99.90
7413;DHT22;3748;48.136;11.538;2022-11-20T14:20:18;6.40;99.90
7413;DHT22;3748;48.136;11.538;2022-11-20T14:22:50;6.40;99.90
7413;DHT22;3748;48.136;11.538;2022-11-20T14:25:21;6.50;99.90
7413;DHT22;3748;48.136;11.538;2022-11-20T14:27:53;6.40;99.90
7413;DHT22;3748;48.136;11.538;2022-11-20T14:30:22;6.40;99.90
7413;DHT22;3748;48.136;11.538;2022-11-20T14:48:28;6.40;99.90
7413;DHT22;3748;48.136;11.538;2022-11-20T14:51:28;6.40;99.90
7413;DHT22;3748;48.136;11.538;2022-11-20T16:17:18;5.40;99.90
7413;DHT22;3748;48.136;11.538;2022-11-20T16:20:10;5.40;99.90
7413;DHT22;3748;48.136;11.538;2022-11-20T16:22:38;5.50;99.90
7413;DHT22;3748;48.136;11.538;2022-11-20T16:41:01;5.20;99.90
7413;DHT22;3748;48.136;11.538;2022-11-20T16:43:28;5.10;99.90
7413;DHT22;3748;48.136;11.538;2022-11-20T16:46:03;5.20;99.90
7413;DHT22;3748;48.136;11.538;2022-11-20T16:48:30;5.30;99.90
7413;DHT22;3748;48.136;11.538;2022-11-20T16:50:57;5.30;99.90
7413;DHT22;3748;48.136;11.538;2022-11-20T16:53:24;5.20;99.90
7413;DHT22;3748;48.136;11.538;2022-11-20T16:55:51;5.00;99.90
7413;DHT22;3748;48.136;11.538;2022-11-20T16:58:20;4.90;99.90
7413;DHT22;3748;48.136;11.538;2022-11-20T17:00:47;4.80;99.90
7413;DHT22;3748;48.136;11.538;2022-11-20T17:03:14;4.80;99.90
7413;DHT22;3748;48.136;11.538;2022-11-20T17:05:42;4.80;99.90
7413;DHT22;3748;48.136;11.538;2022-11-20T17:08:09;4.80;99.90
7413;DHT22;3748;48.136;11.538;2022-11-20T17:10:36;4.70;99.90
7413;DHT22;3748;48.136;11.538;2022-11-20T17:13:03;4.70;99.90
7413;DHT22;3748;48.136;11.538;2022-11-20T17:15:32;4.70;99.90
7413;DHT22;3748;48.136;11.538;2022-11-20T17:17:59;4.70;99.90
7413;DHT22;3748;48.136;11.538;2022-11-20T17:20:28;4.70;99.90
7413;DHT22;3748;48.136;11.538;2022-11-20T17:22:55;4.80;99.90
7413;DHT22;3748;48.136;11.538;2022-11-20T17:25:22;4.90;99.90
7413;DHT22;3748;48.136;11.538;2022-11-20T17:27:50;5.00;99.90
7413;DHT22;3748;48.136;11.538;2022-11-20T17:30:17;4.80;99.90
7413;DHT22;3748;48.136;11.538;2022-11-20T17:32:50;4.80;99.90
7413;DHT22;3748;48.136;11.538;2022-11-20T17:35:17;4.90;99.90
7413;DHT22;3748;48.136;11.538;2022-11-20T17:37:44;4.80;99.90
7413;DHT22;3748;48.136;11.538;2022-11-20T17:40:40;4.60;99.90
7413;DHT22;3748;48.136;11.538;2022-11-20T17:43:08;4.50;99.90
7413;DHT22;3748;48.136;11.538;2022-11-20T17:46:21;4.50;99.90
